createdAt,value
2022-08-10T00:01:52.660Z,99383.03
2022-08-10T00:04:24.111Z,99380.22
2022-08-10T00:06:55.237Z,99373.75
2022-08-10T00:09:23.952Z,99372.53
2022-08-10T00:11:51.247Z,99381.28
2022-08-10T00:14:19.660Z,99379.31
2022-08-10T00:16:46.760Z,99378.19
2022-08-10T00:19:17.256Z,99376.34
2022-08-10T00:21:45.591Z,99375.22
2022-08-10T00:24:13.119Z,99379.69
2022-08-10T00:27:58.771Z,99377.84
2022-08-10T00:29:26.548Z,99370.53
2022-08-10T00:31:57.851Z,99376.81
2022-08-10T00:34:30.317Z,99374.09
2022-08-10T00:36:57.704Z,99373.00
2022-08-10T00:39:24.744Z,99380.44
2022-08-10T00:42:06.383Z,99379.81
2022-08-10T00:44:38.590Z,99385.03
2022-08-10T00:47:06.257Z,99390.06
2022-08-10T00:49:33.576Z,99384.13
2022-08-10T00:54:58.839Z,99379.47
2022-08-10T00:57:25.833Z,99381.41
2022-08-10T00:59:57.886Z,99379.69
2022-08-10T01:02:25.125Z,99371.66
2022-08-10T01:04:59.670Z,99378.34
2022-08-10T01:07:56.795Z,99380.69
2022-08-10T01:10:34.071Z,99377.47
2022-08-10T01:13:06.421Z,99381.44
2022-08-10T01:15:53.089Z,99379.69
2022-08-10T01:18:37.974Z,99381.66
2022-08-10T01:21:23.652Z,99377.97
2022-08-10T01:23:59.491Z,99373.63
2022-08-10T01:26:47.699Z,99371.91
2022-08-10T01:29:34.314Z,99375.72
2022-08-10T01:32:07.198Z,99379.66
2022-08-10T01:34:55.791Z,99374.25
2022-08-10T01:37:28.780Z,99378.69
2022-08-10T01:39:58.910Z,99376.84
2022-08-10T01:42:28.229Z,99370.56
2022-08-10T01:45:02.382Z,99367.84
2022-08-10T01:48:01.189Z,99372.25
2022-08-10T01:50:56.177Z,99372.75
2022-08-10T01:53:40.827Z,99374.69
2022-08-10T01:56:11.041Z,99364.84
2022-08-10T01:58:38.796Z,99368.19
2022-08-10T02:01:09.670Z,99371.28
2022-08-10T02:04:01.219Z,99366.97
2022-08-10T02:06:30.188Z,99370.91
2022-08-10T02:09:06.055Z,99364.94
2022-08-10T02:12:06.610Z,99357.88
2022-08-10T02:14:21.626Z,99368.16
2022-08-10T02:16:52.126Z,99367.66
2022-08-10T02:19:22.121Z,99366.28
2022-08-10T02:22:15.341Z,99369.22
2022-08-10T02:24:42.459Z,99374.91
2022-08-10T02:27:10.151Z,99372.19
2022-08-10T02:29:38.312Z,99373.41
2022-08-10T02:32:11.279Z,99380.91
2022-08-10T02:34:41.305Z,99377.69
2022-08-10T02:37:10.735Z,99381.75
2022-08-10T02:39:37.997Z,99380.25
2022-08-10T02:42:18.214Z,99386.03
2022-08-10T02:45:39.995Z,99388.44
2022-08-10T02:48:16.442Z,99394.97
2022-08-10T02:50:48.380Z,99390.78
2022-08-10T02:53:55.631Z,99396.53
2022-08-10T02:56:38.314Z,99400.72
2022-08-10T02:59:17.459Z,99402.13
2022-08-10T03:01:48.712Z,99402.59
2022-08-10T03:04:20.643Z,99396.53
2022-08-10T03:07:12.057Z,99394.78
2022-08-10T03:09:40.811Z,99397.50
2022-08-10T03:12:36.252Z,99396.66
2022-08-10T03:15:00.015Z,99400.22
2022-08-10T03:17:28.535Z,99402.41
2022-08-10T03:20:35.794Z,99404.47
2022-08-10T03:22:46.892Z,99401.97
2022-08-10T03:25:14.456Z,99401.44
2022-08-10T03:27:42.817Z,99404.38
2022-08-10T03:30:29.468Z,99405.59
2022-08-10T03:32:59.048Z,99408.63
2022-08-10T03:35:27.195Z,99410.69
2022-08-10T03:37:59.111Z,99420.44
2022-08-10T03:40:46.445Z,99419.56
2022-08-10T03:43:19.755Z,99420.66
2022-08-10T03:45:55.867Z,99418.81
2022-08-10T03:48:24.649Z,99417.63
2022-08-10T03:51:12.548Z,99423.06
2022-08-10T03:54:04.941Z,99422.91
2022-08-10T03:56:31.872Z,99429.22
2022-08-10T03:59:00.545Z,99433.75
2022-08-10T04:02:43.940Z,99422.06
2022-08-10T04:04:20.627Z,99428.34
2022-08-10T04:06:51.429Z,99432.91
2022-08-10T04:09:22.011Z,99421.19
2022-08-10T04:11:48.653Z,99428.34
2022-08-10T04:14:38.691Z,99425.63
2022-08-10T04:17:02.442Z,99424.66
2022-08-10T04:19:36.684Z,99428.88
2022-08-10T04:22:08.931Z,99431.38
2022-08-10T04:24:38.224Z,99429.41
2022-08-10T04:27:05.469Z,99428.22
2022-08-10T04:29:32.846Z,99429.59
2022-08-10T04:32:01.433Z,99429.28
2022-08-10T04:34:31.975Z,99434.03
2022-08-10T04:37:08.820Z,99432.50
2022-08-10T04:39:36.506Z,99431.94
2022-08-10T04:42:04.770Z,99429.50
2022-08-10T04:44:32.965Z,99431.53
2022-08-10T04:46:59.714Z,99431.78
2022-08-10T04:49:53.836Z,99434.44
2022-08-10T04:52:14.250Z,99441.41
2022-08-10T04:54:41.648Z,99437.75
2022-08-10T04:57:09.132Z,99437.44
2022-08-10T04:59:36.054Z,99443.53
2022-08-10T05:02:28.630Z,99440.72
2022-08-10T05:04:49.465Z,99442.44
2022-08-10T05:07:18.247Z,99447.16
2022-08-10T05:10:01.274Z,99441.81
2022-08-10T05:12:38.805Z,99443.06
2022-08-10T05:15:11.354Z,99442.34
2022-08-10T05:17:40.270Z,99448.38
2022-08-10T05:20:08.901Z,99444.69
2022-08-10T05:22:38.084Z,99449.97
2022-08-10T05:25:07.756Z,99459.81
2022-08-10T05:27:35.110Z,99456.47
2022-08-10T05:30:03.666Z,99450.25
2022-08-10T05:32:32.191Z,99462.81
2022-08-10T05:34:59.024Z,99458.91
2022-08-10T05:38:09.952Z,99463.25
2022-08-10T05:40:13.636Z,99465.16
2022-08-10T05:42:41.637Z,99467.38
2022-08-10T05:45:20.181Z,99458.25
2022-08-10T05:48:54.460Z,99461.78
2022-08-10T05:50:34.926Z,99465.69
2022-08-10T05:53:59.119Z,99469.75
2022-08-10T05:55:48.827Z,99464.47
2022-08-10T05:58:15.531Z,99463.66
2022-08-10T06:00:50.175Z,99464.72
2022-08-10T06:03:24.105Z,99469.25
2022-08-10T06:05:53.894Z,99459.13
2022-08-10T06:08:26.753Z,99464.63
2022-08-10T06:12:24.633Z,99461.91
2022-08-10T06:14:13.772Z,99466.25
2022-08-10T06:16:44.537Z,99467.88
2022-08-10T06:19:15.268Z,99468.88
2022-08-10T06:21:54.413Z,99470.91
2022-08-10T06:24:30.480Z,99479.00
2022-08-10T06:26:58.728Z,99480.31
2022-08-10T06:29:28.535Z,99481.03
2022-08-10T06:31:57.156Z,99478.16
2022-08-10T06:34:30.544Z,99478.59
2022-08-10T06:37:01.344Z,99472.56
2022-08-10T06:39:36.675Z,99473.69
2022-08-10T06:42:14.709Z,99473.84
2022-08-10T06:45:16.015Z,99477.56
2022-08-10T06:47:59.701Z,99469.78
2022-08-10T06:50:55.854Z,99472.94
2022-08-10T06:53:52.251Z,99468.19
2022-08-10T06:56:37.402Z,99462.53
2022-08-10T06:59:36.988Z,99467.69
2022-08-10T07:02:14.604Z,99471.94
2022-08-10T07:04:54.983Z,99469.88
2022-08-10T07:07:25.234Z,99462.19
2022-08-10T07:09:55.153Z,99467.50
2022-08-10T07:12:23.273Z,99469.00
2022-08-10T07:14:52.064Z,99472.56
2022-08-10T07:17:24.146Z,99472.63
2022-08-10T07:19:54.522Z,99470.66
2022-08-10T07:23:27.399Z,99467.00
2022-08-10T07:25:19.781Z,99472.25
2022-08-10T07:28:00.060Z,99465.00
2022-08-10T07:30:30.590Z,99465.56
2022-08-10T07:32:58.123Z,99466.28
2022-08-10T07:35:30.713Z,99467.53
2022-08-10T07:38:04.085Z,99465.00
2022-08-10T07:40:33.317Z,99470.16
2022-08-10T07:43:04.743Z,99466.09
2022-08-10T07:45:35.689Z,99463.34
2022-08-10T07:48:07.918Z,99462.00
2022-08-10T07:50:37.935Z,99469.28
2022-08-10T07:53:08.647Z,99454.59
2022-08-10T07:56:04.635Z,99456.34
2022-08-10T07:58:31.177Z,99463.31
2022-08-10T08:01:00.634Z,99462.19
2022-08-10T08:03:28.846Z,99455.41
2022-08-10T08:06:03.069Z,99459.22
2022-08-10T08:08:42.196Z,99450.34
2022-08-10T08:11:09.800Z,99449.81
2022-08-10T08:13:53.868Z,99453.63
2022-08-10T08:16:22.357Z,99453.50
2022-08-10T08:19:16.469Z,99444.97
2022-08-10T08:24:04.977Z,99443.66
2022-08-10T08:24:31.588Z,99437.66
2022-08-10T08:27:03.195Z,99444.38
2022-08-10T08:29:31.743Z,99441.16
2022-08-10T08:32:02.144Z,99438.06
2022-08-10T08:34:33.163Z,99441.66
2022-08-10T08:37:03.626Z,99438.94
2022-08-10T08:39:33.681Z,99437.00
2022-08-10T08:42:38.490Z,99441.81
2022-08-10T08:45:23.341Z,99428.97
2022-08-10T08:48:22.259Z,99437.59
2022-08-10T08:50:59.657Z,99444.72
2022-08-10T08:54:02.170Z,99438.81
2022-08-10T08:56:52.023Z,99444.16
2022-08-10T08:59:30.595Z,99442.50
2022-08-10T09:02:19.148Z,99443.09
2022-08-10T09:05:04.543Z,99442.34
2022-08-10T09:08:10.538Z,99430.09
2022-08-10T09:10:46.214Z,99446.59
2022-08-10T09:13:26.835Z,99449.09
2022-08-10T09:16:31.883Z,99437.41
2022-08-10T09:19:09.266Z,99433.69
2022-08-10T09:22:17.614Z,99422.84
2022-08-10T09:25:00.732Z,99422.13
2022-08-10T09:27:40.863Z,99424.59
2022-08-10T09:30:13.517Z,99424.28
2022-08-10T09:36:14.702Z,99426.72
2022-08-10T09:36:32.277Z,99431.22
2022-08-10T09:40:12.363Z,99428.25
2022-08-10T09:43:21.617Z,99427.78
2022-08-10T09:45:50.139Z,99432.75
2022-08-10T09:48:45.836Z,99425.59
2022-08-10T09:51:46.750Z,99422.22
2022-08-10T09:54:52.255Z,99428.28
2022-08-10T09:57:44.643Z,99432.53
2022-08-10T10:00:20.240Z,99421.22
2022-08-10T10:03:24.001Z,99410.13
2022-08-10T10:06:06.875Z,99407.28
2022-08-10T10:09:11.130Z,99409.00
2022-08-10T10:12:21.436Z,99399.84
2022-08-10T10:15:24.318Z,99389.84
2022-08-10T10:18:07.801Z,99392.03
2022-08-10T10:20:56.511Z,99390.31
2022-08-10T10:24:15.519Z,99396.47
2022-08-10T10:26:43.654Z,99384.88
2022-08-10T10:29:55.650Z,99390.41
2022-08-10T10:32:19.238Z,99379.78
2022-08-10T10:34:57.334Z,99387.59
2022-08-10T10:38:01.980Z,99384.31
2022-08-10T10:40:14.609Z,99386.72
2022-08-10T10:42:53.004Z,99386.06
2022-08-10T10:45:29.529Z,99379.97
2022-08-10T10:48:23.851Z,99379.97
2022-08-10T10:51:14.183Z,99370.69
2022-08-10T10:54:00.009Z,99370.72
2022-08-10T10:56:47.761Z,99364.16
2022-08-10T10:59:55.986Z,99372.09
2022-08-10T11:02:27.242Z,99364.09
2022-08-10T11:05:39.355Z,99351.53
2022-08-10T11:08:31.436Z,99352.44
2022-08-10T11:11:20.400Z,99361.47
2022-08-10T11:14:24.950Z,99357.25
2022-08-10T11:17:16.348Z,99355.47
2022-08-10T11:20:00.548Z,99352.72
2022-08-10T11:22:50.362Z,99357.16
2022-08-10T11:25:28.945Z,99359.31
2022-08-10T11:28:11.027Z,99360.28
2022-08-10T11:30:50.165Z,99353.16
2022-08-10T11:33:32.507Z,99346.41
2022-08-10T11:36:07.964Z,99350.41
2022-08-10T11:39:18.209Z,99353.78
2022-08-10T11:42:09.402Z,99348.03
2022-08-10T11:44:57.473Z,99345.94
2022-08-10T11:47:36.012Z,99351.06
2022-08-10T11:50:17.602Z,99342.25
2022-08-10T11:53:12.337Z,99341.47
2022-08-10T11:55:42.634Z,99348.91
2022-08-10T11:58:31.211Z,99351.66
2022-08-10T12:01:04.925Z,99342.38
2022-08-10T12:03:35.026Z,99338.47
2022-08-10T12:06:03.959Z,99335.03
2022-08-10T12:10:06.305Z,99330.28
2022-08-10T12:11:25.280Z,99327.03
2022-08-10T12:14:20.165Z,99321.41
2022-08-10T12:16:51.550Z,99334.91
2022-08-10T12:19:36.643Z,99333.66
2022-08-10T12:22:25.104Z,99334.16
2022-08-10T12:24:59.223Z,99315.91
2022-08-10T12:27:39.132Z,99317.47
2022-08-10T12:30:07.597Z,99301.50
2022-08-10T12:33:09.713Z,99308.44
2022-08-10T12:36:17.547Z,99299.66
2022-08-10T12:38:59.600Z,99304.97
2022-08-10T12:41:44.254Z,99296.34
2022-08-10T12:44:23.152Z,99293.16
2022-08-10T12:47:52.102Z,99293.56
2022-08-10T12:50:32.888Z,99298.16
2022-08-10T12:53:18.761Z,99293.22
2022-08-10T12:55:48.940Z,99292.63
2022-08-10T12:58:58.767Z,99287.34
2022-08-10T13:01:23.160Z,99287.59
2022-08-10T13:04:22.489Z,99283.31
2022-08-10T13:06:47.629Z,99282.72
2022-08-10T13:09:15.345Z,99282.75
2022-08-10T13:12:35.688Z,99273.03
2022-08-10T13:15:28.384Z,99270.22
2022-08-10T13:18:03.820Z,99274.25
2022-08-10T13:20:35.578Z,99260.84
2022-08-10T13:23:10.141Z,99258.25
2022-08-10T13:25:40.618Z,99253.75
2022-08-10T13:28:36.339Z,99257.50
2022-08-10T13:31:04.211Z,99262.84
2022-08-10T13:34:41.361Z,99255.94
2022-08-10T13:36:31.132Z,99260.50
2022-08-10T13:39:00.398Z,99257.38
2022-08-10T13:41:30.548Z,99243.44
2022-08-10T13:43:59.804Z,99253.13
2022-08-10T13:46:27.432Z,99256.53
2022-08-10T13:48:55.878Z,99241.41
2022-08-10T13:51:56.933Z,99247.78
2022-08-10T13:54:16.051Z,99240.72
2022-08-10T13:56:46.987Z,99236.09
2022-08-10T13:59:16.108Z,99238.25
2022-08-10T14:01:49.322Z,99231.44
2022-08-10T14:04:17.685Z,99228.53
2022-08-10T14:06:53.445Z,99229.94
2022-08-10T14:09:28.575Z,99216.72
2022-08-10T14:11:59.226Z,99228.91
2022-08-10T14:14:28.476Z,99219.97
2022-08-10T14:16:57.560Z,99218.38
2022-08-10T14:19:29.745Z,99230.34
2022-08-10T14:21:57.123Z,99227.34
2022-08-10T14:24:24.027Z,99238.47
2022-08-10T14:27:00.031Z,99228.69
2022-08-10T14:29:28.827Z,99223.47
2022-08-10T14:32:00.882Z,99225.78
2022-08-10T14:36:14.961Z,99222.41
2022-08-10T14:37:30.152Z,99220.16
2022-08-10T14:40:08.567Z,99220.66
2022-08-10T14:42:46.297Z,99219.16
2022-08-10T14:45:34.622Z,99207.69
2022-08-10T14:48:13.224Z,99222.78
2022-08-10T14:50:54.923Z,99221.34
2022-08-10T14:53:27.384Z,99210.50
2022-08-10T14:56:01.154Z,99212.13
2022-08-10T14:58:38.435Z,99211.94
2022-08-10T15:01:07.665Z,99206.91
2022-08-10T15:04:02.365Z,99208.63
2022-08-10T15:06:30.849Z,99208.56
2022-08-10T15:09:18.935Z,99207.78
2022-08-10T15:12:13.613Z,99206.16
2022-08-10T15:14:43.137Z,99214.28
2022-08-10T15:17:13.850Z,99214.69
2022-08-10T15:20:02.976Z,99208.22
2022-08-10T15:22:39.207Z,99209.88
2022-08-10T15:25:18.942Z,99208.06
2022-08-10T15:27:57.558Z,99208.38
2022-08-10T15:30:31.622Z,99202.78
2022-08-10T15:34:02.002Z,99199.75
2022-08-10T15:36:33.318Z,99194.50
2022-08-10T15:39:05.600Z,99202.94
2022-08-10T15:41:57.583Z,99204.06
2022-08-10T15:44:43.489Z,99198.06
2022-08-10T15:47:20.416Z,99192.03
2022-08-10T15:49:58.938Z,99191.47
2022-08-10T15:53:00.135Z,99199.91
2022-08-10T15:55:42.492Z,99202.16
2022-08-10T15:58:51.938Z,99196.75
2022-08-10T16:02:12.462Z,99198.13
2022-08-10T16:04:19.965Z,99196.72
2022-08-10T16:06:58.388Z,99196.88
2022-08-10T16:10:24.453Z,99193.78
2022-08-10T16:12:29.746Z,99196.50
2022-08-10T16:15:00.479Z,99190.22
2022-08-10T16:17:28.303Z,99187.66
2022-08-10T16:19:58.166Z,99186.31
2022-08-10T16:22:36.466Z,99188.63
2022-08-10T16:25:15.786Z,99196.16
2022-08-10T16:27:46.651Z,99199.88
2022-08-10T16:30:14.086Z,99193.22
2022-08-10T16:32:42.315Z,99192.09
2022-08-10T16:35:17.790Z,99194.75
2022-08-10T16:37:58.764Z,99193.78
2022-08-10T16:40:29.551Z,99191.78
2022-08-10T16:42:58.809Z,99191.28
2022-08-10T16:45:39.995Z,99185.31
2022-08-10T16:48:09.330Z,99181.91
2022-08-10T16:50:39.396Z,99199.66
2022-08-10T16:53:12.550Z,99195.75
2022-08-10T16:55:50.646Z,99189.09
2022-08-10T16:58:30.327Z,99189.50
2022-08-10T17:01:09.458Z,99187.78
2022-08-10T17:04:06.514Z,99199.88
2022-08-10T17:06:55.366Z,99200.31
2022-08-10T17:09:36.954Z,99202.28
2022-08-10T17:12:11.870Z,99195.25
2022-08-10T17:14:41.449Z,99199.22
2022-08-10T17:17:26.010Z,99207.19
2022-08-10T17:19:57.404Z,99205.84
2022-08-10T17:22:45.897Z,99203.34
2022-08-10T17:25:21.257Z,99204.06
2022-08-10T17:28:05.073Z,99209.47
2022-08-10T17:30:57.910Z,99212.47
2022-08-10T17:33:29.553Z,99205.47
2022-08-10T17:36:03.174Z,99204.88
2022-08-10T17:38:33.502Z,99211.25
2022-08-10T17:41:12.655Z,99210.44
2022-08-10T17:43:46.687Z,99206.03
2022-08-10T17:46:41.665Z,99212.97
2022-08-10T17:49:13.706Z,99210.44
2022-08-10T17:51:43.576Z,99208.75
2022-08-10T17:54:27.723Z,99210.19
2022-08-10T17:57:03.707Z,99217.06
2022-08-10T17:59:32.325Z,99212.13
2022-08-10T18:02:11.462Z,99213.53
2022-08-10T18:04:45.844Z,99215.78
2022-08-10T18:07:14.031Z,99222.00
2022-08-10T18:09:55.087Z,99217.66
2022-08-10T18:12:34.547Z,99210.63
2022-08-10T18:15:12.136Z,99225.75
2022-08-10T18:17:47.222Z,99233.09
2022-08-10T18:20:20.035Z,99225.19
2022-08-10T18:22:50.327Z,99227.06
2022-08-10T18:25:21.089Z,99231.53
2022-08-10T18:28:03.962Z,99233.53
2022-08-10T18:30:36.858Z,99234.16
2022-08-10T18:33:09.444Z,99244.59
2022-08-10T18:35:37.919Z,99239.59
2022-08-10T18:38:08.979Z,99239.19
2022-08-10T18:40:42.551Z,99242.50
2022-08-10T18:44:06.820Z,99246.88
2022-08-10T18:46:02.017Z,99247.34
2022-08-10T18:48:42.285Z,99253.25
2022-08-10T18:51:12.211Z,99243.91
2022-08-10T18:53:50.818Z,99253.38
2022-08-10T18:56:48.142Z,99255.50
2022-08-10T19:00:07.521Z,99253.84
2022-08-10T19:03:01.154Z,99257.81
2022-08-10T19:05:48.719Z,99255.50
2022-08-10T19:08:37.105Z,99256.88
2022-08-10T19:11:48.916Z,99263.59
2022-08-10T19:14:41.266Z,99258.31
2022-08-10T19:18:03.924Z,99263.97
2022-08-10T19:20:32.688Z,99264.16
2022-08-10T19:23:10.888Z,99260.63
2022-08-10T19:26:37.871Z,99262.38
2022-08-10T19:28:55.321Z,99259.88
2022-08-10T19:31:44.399Z,99256.16
2022-08-10T19:34:30.260Z,99259.63
2022-08-10T19:37:09.709Z,99254.19
2022-08-10T19:40:03.557Z,99261.94
2022-08-10T19:42:44.133Z,99259.69
2022-08-10T19:46:01.356Z,99262.78
2022-08-10T19:48:31.205Z,99265.13
2022-08-10T19:51:14.943Z,99260.22
2022-08-10T19:53:59.415Z,99265.56
2022-08-10T19:56:45.046Z,99266.88
2022-08-10T20:00:15.877Z,99265.44
2022-08-10T20:02:51.714Z,99263.44
2022-08-10T20:05:28.449Z,99258.44
2022-08-10T20:08:28.446Z,99262.28
2022-08-10T20:11:44.421Z,99261.69
2022-08-10T20:14:22.150Z,99260.28
2022-08-10T20:16:53.449Z,99261.44
2022-08-10T20:19:52.493Z,99260.84
2022-08-10T20:22:29.716Z,99260.13
2022-08-10T20:25:27.796Z,99258.84
2022-08-10T20:28:19.328Z,99259.41
2022-08-10T20:30:53.127Z,99257.09
2022-08-10T20:33:44.735Z,99256.97
2022-08-10T20:36:26.739Z,99260.53
2022-08-10T20:39:11.842Z,99253.38
2022-08-10T20:42:02.959Z,99259.41
2022-08-10T20:44:32.375Z,99264.88
2022-08-10T20:47:26.775Z,99262.88
2022-08-10T20:50:09.980Z,99254.53
2022-08-10T20:52:37.628Z,99257.09
2022-08-10T20:55:10.093Z,99263.28
2022-08-10T20:57:54.921Z,99260.72
2022-08-10T21:00:24.770Z,99263.59
2022-08-10T21:02:57.965Z,99264.00
2022-08-10T21:05:34.527Z,99258.69
2022-08-10T21:08:30.382Z,99259.81
2022-08-10T21:11:06.879Z,99258.25
2022-08-10T21:14:06.535Z,99264.88
2022-08-10T21:20:03.687Z,99261.91
2022-08-10T21:22:40.882Z,99263.34
2022-08-10T21:25:18.629Z,99259.47
2022-08-10T21:28:28.863Z,99259.28
2022-08-10T21:31:22.138Z,99254.53
2022-08-10T21:34:09.927Z,99250.78
2022-08-10T21:36:51.610Z,99249.59
2022-08-10T21:39:52.689Z,99246.13
2022-08-10T21:42:57.437Z,99255.13
2022-08-10T21:46:05.241Z,99253.31
2022-08-10T21:49:06.190Z,99247.81
2022-08-10T21:52:05.558Z,99241.19
2022-08-10T21:54:57.269Z,99244.31
2022-08-10T21:57:49.224Z,99250.31
2022-08-10T22:00:49.456Z,99248.84
2022-08-10T22:03:39.561Z,99246.50
2022-08-10T22:06:28.492Z,99252.25
2022-08-10T22:09:24.790Z,99252.91
2022-08-10T22:12:30.824Z,99257.13
2022-08-10T22:16:03.161Z,99243.06
2022-08-10T22:18:36.111Z,99243.47
2022-08-10T22:21:52.931Z,99242.88
2022-08-10T22:25:16.532Z,99234.75
2022-08-10T22:28:17.897Z,99238.75
2022-08-10T22:31:24.471Z,99262.66
2022-08-10T22:31:31.754Z,99237.28
2022-08-10T22:35:14.889Z,99234.78
2022-08-10T22:38:23.767Z,99228.00
2022-08-10T22:41:11.293Z,99231.00
2022-08-10T22:43:57.235Z,99226.81
2022-08-10T22:46:47.357Z,99236.47
2022-08-10T22:49:22.048Z,99229.69
2022-08-10T22:52:01.429Z,99229.94
2022-08-10T22:55:08.596Z,99225.75
2022-08-10T22:57:54.539Z,99225.31
2022-08-10T23:00:31.298Z,99228.28
2022-08-10T23:03:21.907Z,99224.22
2022-08-10T23:05:57.720Z,99225.56
2022-08-10T23:08:31.125Z,99229.53
2022-08-10T23:11:12.885Z,99222.63
2022-08-10T23:13:44.260Z,99231.75
2022-08-10T23:16:42.967Z,99222.16
2022-08-10T23:20:01.798Z,99214.25
2022-08-10T23:22:37.254Z,99216.09
2022-08-10T23:25:11.465Z,99229.94
2022-08-10T23:27:40.827Z,99223.91
2022-08-10T23:30:18.093Z,99227.59
2022-08-10T23:32:50.518Z,99225.16
2022-08-10T23:36:08.788Z,99226.00
2022-08-10T23:38:12.700Z,99218.94
2022-08-10T23:40:46.358Z,99219.22
2022-08-10T23:43:41.073Z,99215.66
2022-08-10T23:46:17.719Z,99217.75
2022-08-10T23:48:47.225Z,99215.03
2022-08-10T23:51:17.464Z,99216.63
2022-08-10T23:53:47.925Z,99210.34
2022-08-10T23:56:18.578Z,99209.34
2022-08-10T23:58:53.454Z,99213.78
